KRIV/RIV METAR and TAF weather

Enter ICAO airport designator
Station Type Date Time Source
KRIV METAR 2020/03/31 09:58 UTC NOAA

KRIV 310958Z AUTO 00000KT 10SM CLR 05/04 A3011 RMK AO2 SLP193 T00540036


Station Type Date Time Source
KRIV Decoded METAR 2020/03/31 09:58 UTC NOAA

Riverside / March Air Force Base, CA, United States (KRIV) 33-54N 117-15W 468M
Mar 31, 2020 - 05:58 AM EDT / 2020.03.31 0958 UTC
Wind: Calm:0
Visibility: 10 mile(s):0
Sky conditions: clear
Temperature: 41.7 F (5.4 C)
Dew Point: 38.5 F (3.6 C)
Relative Humidity: 88%
Pressure (altimeter): 30.11 in. Hg (1019 hPa)
ob: KRIV 310958Z AUTO 00000KT 10SM CLR 05/04 A3011 RMK AO2 SLP193 T00540036
cycle: 10

Station Type Date Time Source
KRIV TAF 2020/03/31 04:03 UTC NOAA

TAF KRIV 310400Z 3104/0110 31006KT 9999 FEW250 QNH3012INS
BECMG 3105/3106 VRB05KT 9999 SCT250 QNH2997INS
BECMG 3120/3121 31009KT 9999 BKN250 QNH2986INS
BECMG 0102/0103 VRB05KT 9999 SCT250 QNH2984INS TX24/3122Z TN01/3114Z

Example: see airport list